createdAt,value
2022-11-19T01:20:10.653Z,0.02
2022-11-19T01:22:30.454Z,0.01
2022-11-19T01:27:30.622Z,0.02
2022-11-19T01:30:10.521Z,0.01
2022-11-19T01:34:48.588Z,0.02
2022-11-19T01:36:46.397Z,0.01
2022-11-19T02:36:49.914Z,0.02
2022-11-19T02:39:10.491Z,0.01
2022-11-19T02:41:17.099Z,0.02
2022-11-19T02:46:53.297Z,0.01
2022-11-19T03:08:48.471Z,0.02
2022-11-19T03:11:13.498Z,0.01
2022-11-19T04:38:00.229Z,0.02
2022-11-19T04:40:18.280Z,0.01
2022-11-19T04:50:17.812Z,0.02
2022-11-19T04:52:28.005Z,0.01
2022-11-19T05:02:58.022Z,0.02
2022-11-19T05:05:00.326Z,0.01
2022-11-19T05:07:51.266Z,0.02
2022-11-19T05:10:27.938Z,0.01
2022-11-19T05:12:50.345Z,0.02
2022-11-19T05:14:58.933Z,0.01
2022-11-19T05:17:55.900Z,0.02
2022-11-19T05:23:07.482Z,0.01
2022-11-19T05:25:21.994Z,0.02
2022-11-19T06:02:05.684Z,0.03
2022-11-19T06:07:10.219Z,0.04
2022-11-19T06:09:21.757Z,0.05
2022-11-19T06:12:21.176Z,0.07
2022-11-19T06:15:06.719Z,0.11
2022-11-19T06:17:38.020Z,0.15
2022-11-19T06:19:55.296Z,0.21
2022-11-19T06:21:58.276Z,0.31
2022-11-19T06:24:49.926Z,0.53
2022-11-19T06:27:27.648Z,0.88
2022-11-19T06:29:55.073Z,1.27
2022-11-19T06:32:00.365Z,1.62
2022-11-19T06:34:58.440Z,2.33
2022-11-19T06:37:42.309Z,3.06
2022-11-19T06:40:11.892Z,4.09
2022-11-19T06:42:26.806Z,5.37
2022-11-19T06:44:28.164Z,6.29
2022-11-19T06:47:18.122Z,8.72
2022-11-19T06:49:53.923Z,9.25
2022-11-19T06:52:15.734Z,9.82
2022-11-19T06:54:23.220Z,11.1
2022-11-19T06:57:19.354Z,14.51
2022-11-19T07:00:01.547Z,17.42
2022-11-19T07:02:29.418Z,16.32
2022-11-19T07:04:43.110Z,16.77
2022-11-19T07:06:42.762Z,17.76
2022-11-19T07:09:31.075Z,23.31
2022-11-19T07:11:45.993Z,30.48
2022-11-19T07:13:46.666Z,28.36
2022-11-19T07:16:35.912Z,29.84
2022-11-19T07:19:11.212Z,38.08
2022-11-19T07:21:32.148Z,45.5
2022-11-19T07:23:38.965Z,48.48
2022-11-19T07:26:34.578Z,68.2
2022-11-19T07:29:16.036Z,78.98
2022-11-19T07:31:43.261Z,81.72
2022-11-19T07:33:56.026Z,99.76
2022-11-19T07:35:54.893Z,98.12
2022-11-19T07:38:42.454Z,109.72
2022-11-19T07:41:15.734Z,105.68
2022-11-19T07:43:35.040Z,79.46
2022-11-19T07:45:40.243Z,69.1
2022-11-19T07:48:33.794Z,71.24
2022-11-19T07:51:13.440Z,74.5
2022-11-19T07:53:38.894Z,86.92
2022-11-19T07:55:50.067Z,94.84
2022-11-19T07:58:50.233Z,92.08
2022-11-19T08:01:36.178Z,100.4
2022-11-19T08:04:07.868Z,107.44
2022-11-19T08:06:25.218Z,99.24
2022-11-19T08:08:28.655Z,87.76
2022-11-19T08:11:20.713Z,74.88
2022-11-19T08:13:58.539Z,100.16
2022-11-19T08:16:22.382Z,109.84
2022-11-19T08:18:31.971Z,128.68
2022-11-19T08:21:30.214Z,139.44
2022-11-19T08:24:14.509Z,149.28
2022-11-19T08:26:44.121Z,151.24
2022-11-19T08:28:59.868Z,145.28
2022-11-19T08:31:01.606Z,136.24
2022-11-19T08:33:51.971Z,135.4
2022-11-19T08:36:28.165Z,166.2
2022-11-19T08:38:50.083Z,190.8
2022-11-19T08:40:57.960Z,187.2
2022-11-19T08:43:54.545Z,164.4
2022-11-19T08:46:36.852Z,149.96
2022-11-19T08:49:05.083Z,149.08
2022-11-19T08:51:19.171Z,141.84
2022-11-19T08:53:18.956Z,120.2
2022-11-19T08:56:07.547Z,138.8
2022-11-19T08:58:41.921Z,153.6
2022-11-19T09:01:02.101Z,147.24
2022-11-19T09:03:08.142Z,151.2
2022-11-19T09:06:02.937Z,161.44
2022-11-19T09:08:43.508Z,172
2022-11-19T09:11:09.825Z,153.96
2022-11-19T09:13:22.135Z,151.04
2022-11-19T09:15:20.115Z,144.4
2022-11-19T09:18:06.327Z,143.72
2022-11-19T09:20:38.949Z,152.44
2022-11-19T09:22:57.362Z,163.52
2022-11-19T09:25:01.512Z,204.3
2022-11-19T09:27:54.739Z,249.2
2022-11-19T09:30:33.469Z,324.4
2022-11-19T09:32:58.073Z,344.1
2022-11-19T09:35:08.609Z,352.1
2022-11-19T09:38:07.863Z,339
2022-11-19T09:40:52.784Z,306.1
2022-11-19T09:43:23.484Z,258.4
2022-11-19T09:45:40.161Z,245.7
2022-11-19T09:47:42.523Z,262.1
2022-11-19T09:50:33.668Z,275.8
2022-11-19T09:53:10.745Z,256.8
2022-11-19T09:55:33.565Z,229.3
2022-11-19T09:57:42.163Z,264.5
2022-11-19T10:00:39.650Z,280.9
2022-11-19T10:03:22.908Z,262.9
2022-11-19T10:05:51.894Z,265.2
2022-11-19T10:08:06.629Z,268.2
2022-11-19T10:10:12.007Z,249.5
2022-11-19T10:12:56.241Z,257.9
2022-11-19T10:15:36.164Z,251.2
2022-11-19T10:17:52.474Z,265.1
2022-11-19T10:19:59.423Z,221.4
2022-11-19T10:22:57.295Z,251.6
2022-11-19T10:25:36.359Z,228.5
2022-11-19T10:28:03.639Z,197.2
2022-11-19T10:30:16.664Z,153.6
2022-11-19T10:32:15.656Z,155.52
2022-11-19T10:35:03.366Z,136.56
2022-11-19T10:37:36.749Z,178.3
2022-11-19T10:39:55.958Z,214.4
2022-11-19T10:42:01.024Z,233.6
2022-11-19T10:44:54.833Z,293.8
2022-11-19T10:47:34.341Z,317.7
2022-11-19T10:49:59.930Z,408.3
2022-11-19T10:52:11.190Z,496.6
2022-11-19T10:55:11.144Z,357.9
2022-11-19T10:57:57.072Z,370
2022-11-19T11:00:28.756Z,361.1
2022-11-19T11:02:45.724Z,389.9
2022-11-19T11:04:49.109Z,613.4
2022-11-19T11:07:43.304Z,668.4
2022-11-19T11:10:18.969Z,558.8
2022-11-19T11:12:42.524Z,560.4
2022-11-19T11:14:52.140Z,430.7
2022-11-19T11:17:50.384Z,266
2022-11-19T11:20:34.339Z,254.8
2022-11-19T11:23:04.297Z,325.5
2022-11-19T11:25:20.050Z,265.3
2022-11-19T11:27:21.423Z,239.2
2022-11-19T11:30:11.806Z,200.1
2022-11-19T11:32:47.960Z,223.9
2022-11-19T11:35:13.524Z,236.8
2022-11-19T11:37:17.720Z,202.9
2022-11-19T11:40:14.312Z,218.1
2022-11-19T11:42:56.572Z,218.2
2022-11-19T11:45:24.702Z,227
2022-11-19T11:47:38.788Z,208
2022-11-19T11:49:38.599Z,249.6
2022-11-19T11:52:27.100Z,217.5
2022-11-19T11:55:01.140Z,225.8
2022-11-19T11:57:21.371Z,316
2022-11-19T11:59:27.289Z,324.2
2022-11-19T12:02:22.240Z,287.2
2022-11-19T12:05:02.846Z,287.9
2022-11-19T12:07:29.121Z,292.5
2022-11-19T12:09:41.362Z,288.8
2022-11-19T12:14:26.223Z,295.6
2022-11-19T12:16:58.705Z,328.3
2022-11-19T12:19:17.335Z,344
2022-11-19T12:21:21.428Z,367.8
2022-11-19T12:24:14.352Z,439
2022-11-19T12:26:53.329Z,361.4
2022-11-19T12:29:18.138Z,352.9
2022-11-19T12:31:29.975Z,352.3
2022-11-19T12:34:27.833Z,287.4
2022-11-19T12:37:12.952Z,263.6
2022-11-19T12:39:43.708Z,221.7
2022-11-19T12:42:00.218Z,187.8
2022-11-19T12:44:02.761Z,222.2
2022-11-19T12:46:53.472Z,222
2022-11-19T12:49:30.346Z,259
2022-11-19T12:51:53.217Z,207
2022-11-19T12:54:01.804Z,214.8
2022-11-19T12:56:59.089Z,189.2
2022-11-19T12:59:42.328Z,205.6
2022-11-19T13:02:11.253Z,169.2
2022-11-19T13:04:25.981Z,158.36
2022-11-19T13:06:26.679Z,213.4
2022-11-19T13:09:16.039Z,200
2022-11-19T13:11:51.145Z,166.8
2022-11-19T13:14:11.992Z,161.32
2022-11-19T13:16:18.781Z,166.5
2022-11-19T13:19:14.231Z,158.72
2022-11-19T13:21:55.564Z,180.1
2022-11-19T13:24:22.897Z,170.6
2022-11-19T13:26:35.979Z,180.7
2022-11-19T13:28:34.741Z,201.2
2022-11-19T13:31:22.469Z,157.28
2022-11-19T13:33:55.933Z,166.3
2022-11-19T13:36:15.156Z,198.4
2022-11-19T13:38:19.877Z,172
2022-11-19T13:41:13.676Z,175.9
2022-11-19T13:43:53.241Z,199.1
2022-11-19T13:46:18.536Z,177.6
2022-11-19T13:48:29.800Z,164
2022-11-19T13:51:29.790Z,175.1
2022-11-19T13:54:15.489Z,140.12
2022-11-19T13:56:47.139Z,131.68
2022-11-19T13:59:04.583Z,123.72
2022-11-19T14:01:08.213Z,101.92
2022-11-19T14:03:59.918Z,91.88
2022-11-19T14:06:37.830Z,94.36
2022-11-19T14:09:01.504Z,94.96
2022-11-19T14:11:11.142Z,79.78
2022-11-19T14:14:09.539Z,80.36
2022-11-19T14:16:53.593Z,68.18
2022-11-19T14:19:23.393Z,80.44
2022-11-19T14:21:39.193Z,76.36
2022-11-19T14:23:40.681Z,79.56
2022-11-19T14:26:30.876Z,67.7
2022-11-19T14:29:07.069Z,66.84
2022-11-19T14:31:28.617Z,63.82
2022-11-19T14:33:36.319Z,58.1
2022-11-19T14:36:32.908Z,63
2022-11-19T14:39:15.239Z,64.42
2022-11-19T14:41:43.311Z,70.86
2022-11-19T14:43:57.100Z,66.38
2022-11-19T14:45:56.882Z,64.6
2022-11-19T14:48:45.400Z,53.8
2022-11-19T14:51:19.651Z,63.58
2022-11-19T14:53:39.868Z,59.32
2022-11-19T14:55:45.795Z,56.5
2022-11-19T14:58:40.469Z,55.64
2022-11-19T15:01:21.398Z,49.64
2022-11-19T15:03:47.429Z,44.58
2022-11-19T15:05:59.456Z,42.64
2022-11-19T15:07:57.506Z,41.66
2022-11-19T15:10:44.264Z,32.66
2022-11-19T15:13:16.718Z,29.32
2022-11-19T15:15:34.998Z,29.79
2022-11-19T15:17:39.225Z,27.55
2022-11-19T15:20:32.167Z,24.55
2022-11-19T15:23:10.409Z,21.28
2022-11-19T15:25:34.980Z,17.82
2022-11-19T15:27:45.344Z,15.35
2022-11-19T15:30:44.384Z,10.87
2022-11-19T15:33:29.466Z,9.94
2022-11-19T15:36:00.221Z,8.44
2022-11-19T15:38:20.123Z,7.79
2022-11-19T15:40:19.065Z,5.93
2022-11-19T15:43:10.168Z,4.35
2022-11-19T15:45:47.028Z,3.63
2022-11-19T15:48:09.628Z,2.77
2022-11-19T15:50:18.212Z,2.2
2022-11-19T15:53:15.460Z,1.33
2022-11-19T15:55:58.604Z,0.86
2022-11-19T15:58:27.589Z,0.6
2022-11-19T16:00:42.369Z,0.42
2022-11-19T16:02:42.890Z,0.29
2022-11-19T16:05:32.363Z,0.2
2022-11-19T16:08:07.596Z,0.13
2022-11-19T16:10:28.502Z,0.1
2022-11-19T16:12:35.387Z,0.07
2022-11-19T16:15:30.538Z,0.06
2022-11-19T16:18:11.834Z,0.05
2022-11-19T16:24:50.646Z,0.04
2022-11-19T17:42:11.081Z,0.07
2022-11-19T17:47:21.625Z,0.04
2022-11-19T18:43:59.345Z,0.03
2022-11-19T18:57:00.572Z,0.02
2022-11-19T18:59:44.945Z,0.03
2022-11-19T19:09:23.030Z,0.04
2022-11-19T19:24:35.831Z,0.03
2022-11-19T19:26:49.830Z,0.04
2022-11-19T19:34:12.704Z,0.03
2022-11-19T19:46:40.336Z,0.04
2022-11-19T20:38:52.553Z,0.03
2022-11-19T20:45:36.893Z,0.04
2022-11-19T20:48:26.340Z,0.03
2022-11-19T20:51:01.429Z,0.04
2022-11-19T20:53:22.511Z,0.03
2022-11-19T20:55:29.260Z,0.02
2022-11-19T20:58:24.677Z,0.03
2022-11-19T21:01:06.044Z,0.02
2022-11-19T21:03:33.347Z,0.03
2022-11-19T21:05:46.219Z,0.02
2022-11-19T21:07:45.111Z,0.03
2022-11-19T21:23:03.612Z,0.02
2022-11-19T21:56:03.328Z,0.01
2022-11-19T22:08:16.980Z,0.02
2022-11-19T22:10:42.821Z,0.01
2022-11-19T22:12:46.585Z,0.02
2022-11-19T22:47:06.753Z,0.01
2022-11-19T23:49:35.300Z,0.02
2022-11-19T23:59:45.552Z,0.01
